Time;durP1;ratioP1;P1;durP2;ratioP2;P2;SDS_P1;SDS_P2;PMS_P1;PMS_P2;Temp;Humidity;BMP_temperature;BMP_pressure;BME280_temperature;BME280_humidity;BME280_pressure;Samples;Min_cycle;Max_cycle;Signal;HPM_P1;HPM_P2
2023/02/18 00:01:54;;;;;;;56.03;23.42;;;;;;;10.27;100.00;102270.78;5049908;28;20032;-59
2023/02/18 00:04:19;;;;;;;56.03;22.27;;;;;;;10.30;100.00;102269.84;5033600;28;20025;-56
2023/02/18 00:06:44;;;;;;;58.83;23.13;;;;;;;10.29;100.00;102268.13;5032201;28;20108;-62
2023/02/18 00:09:10;;;;;;;64.93;24.60;;;;;;;10.31;100.00;102261.06;5038008;28;20025;-58
2023/02/18 00:11:37;;;;;;;60.33;24.80;;;;;;;10.29;100.00;102260.22;5050632;28;20025;-57
2023/02/18 00:14:05;;;;;;;61.80;24.83;;;;;;;10.30;100.00;102249.63;5050806;28;20155;-56
2023/02/18 00:16:30;;;;;;;71.93;27.55;;;;;;;10.31;100.00;102254.03;5034015;28;20498;-59
2023/02/18 00:18:57;;;;;;;68.18;27.27;;;;;;;10.16;100.00;102259.44;5032632;28;20056;-59
2023/02/18 00:21:23;;;;;;;71.10;28.25;;;;;;;10.18;100.00;102258.53;5031827;28;20377;-59
2023/02/18 00:23:48;;;;;;;67.25;28.10;;;;;;;10.21;100.00;102257.66;5033423;28;20028;-59
2023/02/18 00:26:15;;;;;;;74.50;29.85;;;;;;;10.22;100.00;102255.00;5032307;28;20087;-60
2023/02/18 00:28:41;;;;;;;64.38;28.70;;;;;;;10.20;100.00;102245.34;5054422;28;20024;-60
2023/02/18 00:31:09;;;;;;;67.80;28.38;;;;;;;10.11;100.00;102249.84;5051834;28;20502;-59
2023/02/18 00:33:35;;;;;;;64.47;27.48;;;;;;;10.15;100.00;102241.91;5048847;28;20539;-57
2023/02/18 00:36:02;;;;;;;65.80;29.20;;;;;;;10.14;100.00;102227.00;5044589;28;20109;-58
2023/02/18 00:38:28;;;;;;;70.30;28.95;;;;;;;10.20;100.00;102234.81;5028187;28;20044;-58
2023/02/18 00:40:54;;;;;;;70.78;28.77;;;;;;;10.19;100.00;102230.44;5029176;28;20030;-58
2023/02/18 00:43:19;;;;;;;69.45;28.63;;;;;;;10.18;100.00;102233.97;5028742;28;20025;-59
2023/02/18 00:45:44;;;;;;;73.15;28.98;;;;;;;10.07;100.00;102234.06;5029135;28;20022;-59
2023/02/18 00:48:09;;;;;;;64.60;29.05;;;;;;;10.10;100.00;102232.28;5028499;28;20024;-60
2023/02/18 00:50:35;;;;;;;67.43;28.20;;;;;;;10.14;100.00;102229.63;5028438;28;20033;-59
2023/02/18 00:53:00;;;;;;;64.82;28.40;;;;;;;10.08;100.00;102231.41;5031399;28;20025;-60
2023/02/18 00:55:26;;;;;;;66.90;28.73;;;;;;;10.07;100.00;102219.16;5048319;28;20079;-59
2023/02/18 00:57:51;;;;;;;75.35;28.98;;;;;;;10.07;100.00;102224.41;5047431;28;20029;-62
2023/02/18 01:00:16;;;;;;;73.15;28.75;;;;;;;10.09;100.00;102227.03;5048552;28;20024;-61
2023/02/18 01:02:42;;;;;;;61.95;27.83;;;;;;;10.05;100.00;102223.53;5045550;28;20033;-59
2023/02/18 01:05:08;;;;;;;61.17;26.80;;;;;;;10.00;100.00;102220.09;5031850;28;20029;-57
2023/02/18 01:07:33;;;;;;;57.20;26.98;;;;;;;10.04;100.00;102224.44;5027339;28;20117;-58
2023/02/18 01:09:58;;;;;;;59.10;25.08;;;;;;;10.05;100.00;102231.44;5034564;28;20029;-60
2023/02/18 01:12:24;;;;;;;67.35;25.83;;;;;;;10.08;100.00;102218.25;5047395;28;20128;-59
2023/02/18 01:14:49;;;;;;;53.20;22.52;;;;;;;10.03;100.00;102209.53;5043289;28;20027;-59
2023/02/18 01:17:14;;;;;;;57.83;24.88;;;;;;;9.90;100.00;102210.53;5026460;28;20065;-60
2023/02/18 01:19:40;;;;;;;50.70;22.98;;;;;;;10.09;100.00;102209.44;5027331;28;20068;-60
2023/02/18 01:22:05;;;;;;;55.10;22.95;;;;;;;10.10;100.00;102200.69;5027920;28;20072;-61
2023/02/18 01:24:31;;;;;;;58.15;23.55;;;;;;;10.14;100.00;102200.66;5027770;28;20645;-59
2023/02/18 01:26:56;;;;;;;47.42;22.13;;;;;;;10.08;100.00;102198.94;5066259;28;20360;-57
2023/02/18 01:29:22;;;;;;;45.17;21.58;;;;;;;9.99;100.00;102190.25;5067580;28;20029;-61
2023/02/18 01:31:47;;;;;;;46.38;20.02;;;;;;;10.04;100.00;102191.97;5067456;28;20087;-60
2023/02/18 01:34:12;;;;;;;48.25;19.83;;;;;;;10.01;100.00;102198.13;5068596;28;20024;-59
2023/02/18 01:36:38;;;;;;;48.25;20.83;;;;;;;10.07;100.00;102192.81;5032839;28;20072;-60
2023/02/18 01:39:05;;;;;;;41.17;20.33;;;;;;;9.97;100.00;102206.97;5028312;28;20026;-58
2023/02/18 01:41:30;;;;;;;47.95;22.17;;;;;;;10.03;100.00;102196.38;5027070;28;20041;-61
2023/02/18 01:44:17;;;;;;;45.90;20.70;;;;;;;10.11;100.00;102189.25;5026406;28;20021;-60
2023/02/18 01:46:43;;;;;;;49.05;22.05;;;;;;;10.07;100.00;102187.53;5027704;28;20033;-61
2023/02/18 01:49:10;;;;;;;59.30;22.33;;;;;;;10.10;100.00;102187.50;5028638;28;20100;-60
2023/02/18 01:51:38;;;;;;;49.10;21.77;;;;;;;10.02;100.00;102170.91;5025775;28;20069;-58
2023/02/18 01:54:30;;;;;;;54.80;20.40;;;;;;;9.99;100.00;102176.19;5028320;28;20032;-58
2023/02/18 01:57:05;;;;;;;47.15;20.17;;;;;;;9.93;100.00;102173.66;5041271;28;20048;-59
2023/02/18 01:59:38;;;;;;;41.40;18.65;;;;;;;10.09;100.00;102162.03;5046317;28;20020;-60
2023/02/18 02:02:05;;;;;;;45.42;19.83;;;;;;;10.03;100.00;102170.03;5047203;28;20078;-59
2023/02/18 02:04:31;;;;;;;49.17;20.70;;;;;;;10.06;100.00;102159.44;5046046;28;20028;-58
2023/02/18 02:06:56;;;;;;;65.60;22.70;;;;;;;10.05;100.00;102162.13;5032897;28;20025;-60
2023/02/18 02:09:25;;;;;;;57.85;21.58;;;;;;;10.00;100.00;102156.91;5026032;28;20041;-59
2023/02/18 02:12:04;;;;;;;55.15;22.50;;;;;;;10.04;100.00;102141.91;5035275;28;20043;-60
2023/02/18 02:14:51;;;;;;;62.45;23.75;;;;;;;10.10;100.00;102134.84;5045737;28;20059;-58
2023/02/18 02:17:31;;;;;;;60.20;22.08;;;;;;;9.99;100.00;102118.28;5046703;28;20040;-59
2023/02/18 02:20:25;;;;;;;58.70;23.83;;;;;;;10.08;100.00;102122.56;5034255;28;20088;-59
2023/02/18 02:22:57;;;;;;;56.55;21.85;;;;;;;10.05;100.00;102118.19;5021647;28;20045;-61
2023/02/18 02:25:22;;;;;;;56.40;22.55;;;;;;;10.03;100.00;102112.09;5027243;28;20037;-61
2023/02/18 02:28:29;;;;;;;54.20;20.85;;;;;;;10.08;100.00;102109.38;5037145;28;20082;-61
2023/02/18 02:31:21;;;;;;;54.90;21.45;;;;;;;10.05;100.00;102091.03;5041046;28;20047;-62
2023/02/18 02:34:27;;;;;;;52.28;20.40;;;;;;;10.04;100.00;102091.88;5046145;28;20033;-60
2023/02/18 02:37:40;;;;;;;50.10;21.70;;;;;;;10.06;100.00;102082.22;5027280;28;20479;-58
2023/02/18 02:40:30;;;;;;;56.53;22.35;;;;;;;10.04;100.00;102071.69;5004265;28;20041;-60
2023/02/18 02:43:11;;;;;;;63.08;26.38;;;;;;;10.16;100.00;102069.78;5025521;28;20517;-61
2023/02/18 02:45:42;;;;;;;64.18;29.08;;;;;;;10.21;100.00;102058.31;5027068;28;20037;-58
2023/02/18 02:48:33;;;;;;;67.97;29.60;;;;;;;10.26;100.00;102047.72;5038922;28;20028;-59
2023/02/18 02:51:16;;;;;;;66.10;28.95;;;;;;;10.15;100.00;102045.25;5046870;28;20029;-59
2023/02/18 02:53:42;;;;;;;67.72;29.27;;;;;;;10.21;100.00;102041.66;5046993;28;20029;-59
2023/02/18 02:56:14;;;;;;;62.45;26.88;;;;;;;10.27;100.00;102035.44;5045914;28;20127;-59
2023/02/18 02:58:40;;;;;;;59.05;26.85;;;;;;;10.21;100.00;102041.66;5046332;28;20029;-59
2023/02/18 03:01:43;;;;;;;63.08;27.17;;;;;;;10.19;100.00;102046.06;5046812;28;20408;-59
2023/02/18 03:04:19;;;;;;;47.50;21.48;;;;;;;10.15;100.00;102036.47;5046647;28;20033;-60
2023/02/18 03:07:06;;;;;;;40.83;19.35;;;;;;;10.20;100.00;102042.53;5046150;28;20021;-59
2023/02/18 03:09:48;;;;;;;40.65;18.23;;;;;;;10.15;100.00;102042.59;5046056;28;20025;-60
2023/02/18 03:12:22;;;;;;;34.85;17.60;;;;;;;10.20;100.00;102032.00;5046153;28;20040;-61
2023/02/18 03:15:16;;;;;;;30.05;15.32;;;;;;;10.14;100.00;102026.81;5046670;28;20033;-60
2023/02/18 03:17:50;;;;;;;28.90;15.15;;;;;;;10.15;100.00;102016.28;5046453;28;20483;-59
2023/02/18 03:20:24;;;;;;;26.27;13.35;;;;;;;10.03;100.00;102019.94;5032125;28;20480;-60
2023/02/18 03:22:51;;;;;;;24.38;12.90;;;;;;;10.04;100.00;102021.66;5025979;28;20087;-60
2023/02/18 03:25:17;;;;;;;27.98;13.00;;;;;;;10.09;100.00;102026.88;5025517;28;20083;-58
2023/02/18 03:27:46;;;;;;;25.23;13.27;;;;;;;10.21;100.00;102002.16;5029504;28;20029;-58
2023/02/18 03:30:37;;;;;;;21.83;12.38;;;;;;;10.23;100.00;101987.16;5046394;28;20604;-58
2023/02/18 03:33:05;;;;;;;28.73;14.68;;;;;;;10.18;100.00;101989.00;5045421;28;20029;-60
2023/02/18 03:35:30;;;;;;;25.63;14.27;;;;;;;10.19;100.00;101983.72;5059282;28;20072;-61
2023/02/18 03:38:03;;;;;;;23.75;13.20;;;;;;;10.21;100.00;101995.09;5064407;28;20090;-58
2023/02/18 03:40:29;;;;;;;24.20;13.02;;;;;;;10.18;100.00;101978.47;5064101;28;20025;-59
2023/02/18 03:42:58;;;;;;;26.90;13.77;;;;;;;10.28;100.00;101976.56;5053623;28;20029;-61
2023/02/18 03:45:24;;;;;;;23.67;12.48;;;;;;;10.18;100.00;101973.22;5047039;28;20025;-60
2023/02/18 03:47:50;;;;;;;23.40;11.95;;;;;;;10.21;100.00;101971.38;5046395;28;20029;-61
2023/02/18 03:50:15;;;;;;;19.27;11.57;;;;;;;10.27;100.00;101966.94;5045540;28;20406;-58
2023/02/18 03:52:41;;;;;;;19.92;11.02;;;;;;;10.19;100.00;101964.41;5046598;28;20035;-60
2023/02/18 03:55:06;;;;;;;16.65;9.60;;;;;;;10.15;100.00;101957.44;5045921;28;20087;-58
2023/02/18 03:57:31;;;;;;;20.70;10.48;;;;;;;10.17;100.00;101966.22;5045311;28;20033;-60
2023/02/18 03:59:57;;;;;;;18.27;9.38;;;;;;;10.17;100.00;101971.47;5025970;28;20476;-60
2023/02/18 04:02:22;;;;;;;19.08;10.52;;;;;;;10.19;100.00;101960.03;5026165;28;20125;-61
2023/02/18 04:04:47;;;;;;;16.40;10.13;;;;;;;10.17;100.00;101964.44;5025207;28;20030;-61
2023/02/18 04:07:13;;;;;;;16.00;10.48;;;;;;;10.07;100.00;101966.31;5039921;28;20029;-59
2023/02/18 04:09:38;;;;;;;15.27;10.30;;;;;;;10.14;100.00;101960.97;5047981;28;20163;-60
2023/02/18 04:12:04;;;;;;;17.40;9.38;;;;;;;10.09;100.00;101959.25;5027742;28;20037;-58
2023/02/18 04:14:29;;;;;;;17.42;10.30;;;;;;;10.08;100.00;101954.88;5029435;28;20061;-59
2023/02/18 04:16:54;;;;;;;17.85;9.40;;;;;;;10.06;100.00;101946.13;5029713;28;20032;-57
2023/02/18 04:19:20;;;;;;;19.88;9.38;;;;;;;10.02;100.00;101947.06;5043741;28;20037;-59
2023/02/18 04:21:45;;;;;;;14.93;9.13;;;;;;;10.02;100.00;101943.59;5049353;28;20045;-59
2023/02/18 04:24:10;;;;;;;21.95;10.93;;;;;;;10.03;100.00;101943.56;5049444;28;20036;-58
2023/02/18 04:26:36;;;;;;;19.70;10.35;;;;;;;10.11;100.00;101946.94;5047871;28;20065;-59
2023/02/18 04:29:01;;;;;;;22.42;11.18;;;;;;;10.15;100.00;101947.78;5049843;28;20048;-59
2023/02/18 04:31:26;;;;;;;29.17;12.98;;;;;;;10.17;100.00;101939.88;5048573;28;20052;-60
2023/02/18 04:33:52;;;;;;;30.13;13.05;;;;;;;10.22;100.00;101935.38;5048554;28;20459;-60
2023/02/18 04:36:17;;;;;;;34.10;14.30;;;;;;;10.18;100.00;101931.91;5035468;28;20506;-59
2023/02/18 04:38:42;;;;;;;30.30;14.70;;;;;;;10.14;100.00;101939.91;5030028;28;20033;-59
2023/02/18 04:41:08;;;;;;;42.25;14.57;;;;;;;10.19;100.00;101924.91;5029215;28;20025;-58
2023/02/18 04:43:33;;;;;;;37.78;14.23;;;;;;;10.15;100.00;101920.56;5027442;28;20178;-59
2023/02/18 04:45:58;;;;;;;37.70;15.20;;;;;;;10.15;100.00;101910.91;5029658;28;20033;-61
2023/02/18 04:48:24;;;;;;;33.55;14.80;;;;;;;10.10;100.00;101907.47;5029058;28;20029;-58
2023/02/18 04:50:49;;;;;;;33.13;15.07;;;;;;;10.10;100.00;101912.75;5029713;28;20026;-56
2023/02/18 04:53:14;;;;;;;35.72;14.35;;;;;;;10.11;100.00;101894.28;5029597;28;20108;-59
2023/02/18 04:55:40;;;;;;;40.05;15.60;;;;;;;10.10;100.00;101897.81;5028771;28;20029;-61
2023/02/18 04:58:05;;;;;;;39.58;15.75;;;;;;;10.15;100.00;101902.13;5029039;28;20030;-57
2023/02/18 05:00:30;;;;;;;35.90;14.57;;;;;;;10.20;100.00;101905.56;5067056;28;20039;-57
2023/02/18 05:02:56;;;;;;;31.98;14.98;;;;;;;10.17;100.00;101903.00;5068612;28;20036;-59
2023/02/18 05:05:21;;;;;;;32.90;15.48;;;;;;;10.22;100.00;101895.88;5069022;28;20035;-61
2023/02/18 05:07:47;;;;;;;31.80;15.10;;;;;;;10.23;100.00;101902.88;5053773;28;20108;-58
2023/02/18 05:10:15;;;;;;;32.30;14.43;;;;;;;10.32;100.00;101892.22;5049487;28;20103;-57
2023/02/18 05:12:40;;;;;;;35.22;14.35;;;;;;;10.17;100.00;101903.84;5048179;28;20037;-56
2023/02/18 05:15:06;;;;;;;36.00;13.50;;;;;;;10.23;100.00;101902.88;5040984;28;20494;-59
2023/02/18 05:17:32;;;;;;;29.90;13.07;;;;;;;10.24;100.00;101888.84;5028646;28;20036;-57
2023/02/18 05:19:57;;;;;;;25.65;12.55;;;;;;;10.29;100.00;101892.25;5027248;28;20124;-59
2023/02/18 05:22:22;;;;;;;24.42;12.15;;;;;;;10.33;100.00;101891.31;5031029;28;20368;-61
2023/02/18 05:24:48;;;;;;;28.25;12.77;;;;;;;10.22;100.00;101909.06;5049560;28;20029;-60
2023/02/18 05:27:13;;;;;;;25.65;12.63;;;;;;;10.34;100.00;101884.28;5048446;28;20025;-58
2023/02/18 05:29:38;;;;;;;20.52;11.60;;;;;;;10.43;100.00;101870.09;5048371;28;20028;-60
2023/02/18 05:32:04;;;;;;;23.05;11.73;;;;;;;10.35;100.00;101881.63;5048235;28;20055;-59
2023/02/18 05:34:29;;;;;;;24.27;11.27;;;;;;;10.32;100.00;101879.03;5047091;28;20098;-59
2023/02/18 05:36:55;;;;;;;21.42;11.30;;;;;;;10.47;100.00;101863.88;5048666;28;20024;-59
2023/02/18 05:39:20;;;;;;;21.23;11.07;;;;;;;10.45;100.00;101870.94;5048908;28;20024;-60
2023/02/18 05:41:45;;;;;;;23.35;11.13;;;;;;;10.44;100.00;101879.72;5047932;28;20035;-59
2023/02/18 05:44:29;;;;;;;24.63;11.38;;;;;;;10.38;100.00;101880.69;5048746;28;20045;-60
2023/02/18 05:46:59;;;;;;;21.23;11.55;;;;;;;10.44;100.00;101869.19;5048397;28;20387;-60
2023/02/18 05:49:24;;;;;;;24.60;11.23;;;;;;;10.47;100.00;101859.50;5047946;28;20029;-58
2023/02/18 05:51:50;;;;;;;20.80;11.50;;;;;;;10.46;100.00;101875.34;5048590;28;20090;-61
2023/02/18 05:54:15;;;;;;;24.63;11.90;;;;;;;10.40;100.00;101872.75;5049151;28;20119;-59
2023/02/18 05:56:40;;;;;;;24.80;12.27;;;;;;;10.39;100.00;101855.22;5048034;28;20456;-58
2023/02/18 05:59:06;;;;;;;20.23;12.38;;;;;;;10.41;100.00;101869.25;5048104;28;20091;-56
2023/02/18 06:01:31;;;;;;;30.50;12.63;;;;;;;10.32;100.00;101879.03;5044597;28;20029;-61
2023/02/18 06:03:56;;;;;;;29.30;13.70;;;;;;;10.34;100.00;101857.94;5036104;28;20029;-59
2023/02/18 06:06:22;;;;;;;30.52;13.07;;;;;;;10.34;100.00;101857.94;5027907;28;20552;-60
2023/02/18 06:08:47;;;;;;;34.53;13.35;;;;;;;10.34;100.00;101845.66;5035322;28;20577;-59
2023/02/18 06:11:12;;;;;;;29.33;12.55;;;;;;;10.35;100.00;101850.00;5056421;28;20040;-61
2023/02/18 06:13:38;;;;;;;28.75;13.02;;;;;;;10.26;100.00;101859.84;5044510;28;20055;-57
2023/02/18 06:16:03;;;;;;;27.98;12.07;;;;;;;10.23;100.00;101881.81;5039913;28;20105;-60
2023/02/18 06:18:29;;;;;;;34.65;13.40;;;;;;;10.33;100.00;101867.59;5039178;28;20067;-60
2023/02/18 06:20:54;;;;;;;36.20;12.27;;;;;;;10.24;100.00;101862.50;5016587;28;20025;-60
2023/02/18 06:23:20;;;;;;;33.63;11.98;;;;;;;10.31;100.00;101858.88;5041158;28;20115;-60
2023/02/18 06:25:47;;;;;;;38.47;12.85;;;;;;;10.29;100.00;101852.75;5045290;28;20195;-57
2023/02/18 06:28:13;;;;;;;35.90;12.25;;;;;;;10.31;100.00;101863.25;5033211;28;20024;-59
2023/02/18 06:30:38;;;;;;;40.13;11.93;;;;;;;10.29;100.00;101855.38;5045190;28;20021;-60
2023/02/18 06:33:03;;;;;;;31.13;10.35;;;;;;;10.43;100.00;101847.25;5035635;28;20111;-63
2023/02/18 06:35:29;;;;;;;36.45;10.27;;;;;;;10.26;100.00;101868.59;5038879;28;20033;-59
2023/02/18 06:37:54;;;;;;;27.77;10.23;;;;;;;10.27;100.00;101851.91;5047333;28;20044;-60
2023/02/18 06:40:20;;;;;;;31.52;10.48;;;;;;;10.29;100.00;101850.09;5039304;28;20038;-59
2023/02/18 06:42:45;;;;;;;33.60;9.63;;;;;;;10.36;100.00;101857.00;5030304;28;20032;-60
2023/02/18 06:45:10;;;;;;;39.15;9.63;;;;;;;10.22;100.00;101854.63;5040118;28;20812;-59
2023/02/18 06:47:36;;;;;;;30.33;9.27;;;;;;;10.28;100.00;101852.75;5042612;28;20384;-60
2023/02/18 06:50:02;;;;;;;31.63;8.77;;;;;;;10.22;100.00;101877.44;5036867;28;20017;-59
2023/02/18 06:52:29;;;;;;;25.52;7.72;;;;;;;10.16;100.00;101859.09;5045653;28;20025;-58
2023/02/18 06:54:55;;;;;;;21.23;8.13;;;;;;;10.13;100.00;101880.22;5042761;28;20025;-57
2023/02/18 06:57:20;;;;;;;28.58;6.35;;;;;;;10.18;100.00;101867.84;5039480;28;20035;-59
2023/02/18 06:59:45;;;;;;;22.20;6.20;;;;;;;10.19;100.00;101859.06;5038016;28;20112;-60
2023/02/18 07:02:14;;;;;;;32.08;6.13;;;;;;;10.28;100.00;101852.75;5039827;28;20056;-57
2023/02/18 07:04:39;;;;;;;25.40;4.85;;;;;;;10.34;100.00;101848.28;5047777;28;20029;-56
2023/02/18 07:07:05;;;;;;;33.80;5.53;;;;;;;10.24;100.00;101863.34;5047411;28;20017;-61
2023/02/18 07:09:30;;;;;;;35.60;5.88;;;;;;;10.24;100.00;101868.63;5045546;28;20476;-59
2023/02/18 07:11:57;;;;;;;32.42;5.80;;;;;;;10.27;100.00;101851.03;5039065;28;20058;-59
2023/02/18 07:14:23;;;;;;;34.00;4.63;;;;;;;10.26;100.00;101871.22;5044964;28;20029;-63
2023/02/18 07:16:49;;;;;;;32.35;5.18;;;;;;;10.29;100.00;101833.44;5041655;28;20088;-59
2023/02/18 07:19:14;;;;;;;23.63;4.90;;;;;;;10.20;100.00;101837.06;5047413;28;20024;-57
2023/02/18 07:21:40;;;;;;;27.05;4.63;;;;;;;10.24;100.00;101841.41;5045344;28;20053;-58
2023/02/18 07:24:05;;;;;;;27.08;4.15;;;;;;;10.24;100.00;101862.50;5046990;28;20024;-61
2023/02/18 07:26:30;;;;;;;27.23;4.32;;;;;;;10.18;100.00;101846.78;5045532;28;20025;-58
2023/02/18 07:28:56;;;;;;;30.55;4.65;;;;;;;10.13;100.00;101854.75;5046382;28;20032;-60
2023/02/18 07:31:21;;;;;;;34.80;4.45;;;;;;;10.13;100.00;101841.59;5038106;28;20053;-62
2023/02/18 07:33:47;;;;;;;26.05;3.83;;;;;;;10.19;100.00;101851.16;5035319;28;20025;-56
2023/02/18 07:36:12;;;;;;;28.00;4.80;;;;;;;10.20;100.00;101829.19;5043145;28;20083;-57
2023/02/18 07:38:37;;;;;;;28.42;4.43;;;;;;;10.23;100.00;101832.63;5036538;28;20403;-60
2023/02/18 07:41:03;;;;;;;26.50;3.80;;;;;;;10.26;100.00;101836.97;5035546;28;20037;-60
2023/02/18 07:43:28;;;;;;;23.85;3.80;;;;;;;10.19;100.00;101844.13;5045635;28;20025;-62
2023/02/18 07:45:53;;;;;;;29.40;4.28;;;;;;;10.29;100.00;101842.19;5050551;28;20073;-61
2023/02/18 07:48:19;;;;;;;25.10;4.32;;;;;;;10.28;100.00;101853.63;5049710;28;20021;-61
2023/02/18 07:50:45;;;;;;;28.13;4.57;;;;;;;10.32;100.00;101841.28;5050829;28;20024;-62
2023/02/18 07:53:12;;;;;;;32.10;4.15;;;;;;;10.30;100.00;101845.72;5050824;28;20013;-62
2023/02/18 07:55:50;;;;;;;28.58;4.13;;;;;;;10.23;100.00;101848.44;5050532;28;20040;-61
2023/02/18 07:58:27;;;;;;;35.95;5.45;;;;;;;10.28;100.00;101856.28;5049319;28;20112;-63
2023/02/18 08:00:53;;;;;;;27.13;3.58;;;;;;;10.21;100.00;101858.13;5048045;28;20013;-63
2023/02/18 08:03:26;;;;;;;28.92;4.72;;;;;;;10.14;100.00;101863.53;5042874;28;20025;-60
2023/02/18 08:05:53;;;;;;;32.58;5.40;;;;;;;10.09;100.00;101840.75;5030142;28;20522;-62
2023/02/18 08:08:21;;;;;;;32.03;4.30;;;;;;;10.13;100.00;101799.44;5029174;28;20050;-63
2023/02/18 08:10:47;;;;;;;25.97;4.37;;;;;;;10.16;100.00;101869.63;5029895;28;20386;-65
2023/02/18 08:13:13;;;;;;;26.60;3.65;;;;;;;10.22;100.00;101854.63;5043211;28;20017;-61
2023/02/18 08:15:39;;;;;;;26.58;3.65;;;;;;;10.28;100.00;101842.22;5048623;28;20117;-56
2023/02/18 08:18:06;;;;;;;24.42;3.72;;;;;;;10.28;100.00;101845.75;5047745;28;20021;-60
2023/02/18 08:20:36;;;;;;;31.00;4.07;;;;;;;10.17;100.00;101861.72;5050248;28;20025;-59
2023/02/18 08:23:02;;;;;;;27.90;4.07;;;;;;;10.30;100.00;101845.72;5049161;28;20525;-59
2023/02/18 08:25:27;;;;;;;21.85;4.10;;;;;;;10.21;100.00;101852.00;5048710;28;20029;-60
2023/02/18 08:27:53;;;;;;;20.10;3.33;;;;;;;10.26;100.00;101870.38;5048654;28;20392;-56
2023/02/18 08:30:18;;;;;;;23.88;4.15;;;;;;;10.13;100.00;101848.59;5049871;28;20028;-58
2023/02/18 08:32:43;;;;;;;22.75;4.40;;;;;;;10.04;100.00;101855.78;5048765;28;20029;-58
2023/02/18 08:35:10;;;;;;;24.80;3.63;;;;;;;9.89;100.00;101850.72;5052066;28;20468;-61
2023/02/18 08:37:35;;;;;;;29.80;3.65;;;;;;;10.05;100.00;101843.47;5051852;28;20032;-58
2023/02/18 08:40:01;;;;;;;24.05;3.67;;;;;;;10.06;100.00;101853.97;5050967;28;20090;-59
2023/02/18 08:42:26;;;;;;;22.00;3.42;;;;;;;10.22;100.00;101848.47;5046059;28;20421;-58
2023/02/18 08:44:52;;;;;;;26.27;4.40;;;;;;;10.24;100.00;101841.41;5048208;28;20020;-59
2023/02/18 08:47:17;;;;;;;21.70;3.15;;;;;;;10.41;100.00;101864.84;5045924;28;20599;-58
2023/02/18 08:49:43;;;;;;;20.55;3.15;;;;;;;10.38;100.00;101842.97;5049129;28;20100;-60
2023/02/18 08:52:08;;;;;;;26.33;4.13;;;;;;;10.42;100.00;101865.72;5048203;28;20027;-61
2023/02/18 08:54:33;;;;;;;23.83;3.08;;;;;;;10.49;100.00;101867.38;5047792;28;20534;-58
2023/02/18 08:56:59;;;;;;;23.27;4.00;;;;;;;10.38;100.00;101879.84;5047058;28;20391;-56
2023/02/18 08:59:24;;;;;;;28.65;4.28;;;;;;;10.46;100.00;101885.88;5049365;28;20025;-59
2023/02/18 09:01:50;;;;;;;19.63;2.92;;;;;;;10.67;100.00;101875.84;5048803;28;20051;-56
2023/02/18 09:04:15;;;;;;;18.92;3.03;;;;;;;10.70;100.00;101875.81;5048136;28;20055;-59
2023/02/18 09:06:41;;;;;;;19.88;3.80;;;;;;;10.66;100.00;101872.38;5047008;28;20043;-60
2023/02/18 09:09:06;;;;;;;22.92;3.95;;;;;;;10.61;100.00;101882.13;5047411;28;20023;-59
2023/02/18 09:11:32;;;;;;;17.52;2.80;;;;;;;10.57;100.00;101891.81;5047120;28;20534;-60
2023/02/18 09:13:57;;;;;;;19.10;3.10;;;;;;;10.63;100.00;101884.72;5047932;28;20028;-60
2023/02/18 09:16:23;;;;;;;26.33;3.67;;;;;;;10.72;100.00;101880.16;5048187;28;20033;-57
2023/02/18 09:18:48;;;;;;;25.60;3.88;;;;;;;10.74;100.00;101902.09;5045232;28;20545;-56
2023/02/18 09:21:14;;;;;;;20.83;3.70;;;;;;;10.81;100.00;101894.94;5047613;28;20041;-59
2023/02/18 09:23:40;;;;;;;22.63;3.63;;;;;;;10.83;100.00;101911.59;5046152;28;20458;-60
2023/02/18 09:26:08;;;;;;;17.80;3.35;;;;;;;10.74;100.00;101895.94;5047073;28;20028;-60
2023/02/18 09:28:35;;;;;;;23.67;4.28;;;;;;;10.66;100.00;101918.94;5048679;28;20025;-60
2023/02/18 09:31:09;;;;;;;25.02;3.92;;;;;;;10.73;100.00;101915.31;5047696;28;20021;-60
2023/02/18 09:33:36;;;;;;;23.20;4.82;;;;;;;10.79;100.00;101911.69;5045798;28;20037;-60
2023/02/18 09:36:01;;;;;;;30.90;4.80;;;;;;;10.69;100.00;101913.63;5047799;28;20035;-60
2023/02/18 09:38:27;;;;;;;23.83;3.70;;;;;;;10.53;100.00;101913.00;5046132;28;20414;-59
2023/02/18 09:40:53;;;;;;;28.90;4.28;;;;;;;10.58;100.00;101925.22;5046749;28;20077;-63
2023/02/18 09:43:25;;;;;;;26.02;4.47;;;;;;;10.56;100.00;101940.16;5045449;28;20059;-58
2023/02/18 09:45:52;;;;;;;27.15;5.07;;;;;;;10.64;100.00;101915.44;5033058;28;20040;-58
2023/02/18 09:48:17;;;;;;;21.17;4.25;;;;;;;10.60;100.00;101923.41;5046807;28;20021;-62
2023/02/18 09:50:47;;;;;;;29.60;4.72;;;;;;;10.66;100.00;101940.03;5045437;28;20506;-59
2023/02/18 09:53:12;;;;;;;25.27;3.92;;;;;;;10.73;100.00;101925.84;5045511;28;20072;-58
2023/02/18 09:55:39;;;;;;;29.20;3.97;;;;;;;10.65;100.00;101933.03;5053911;28;20052;-59
2023/02/18 09:58:18;;;;;;;28.95;4.50;;;;;;;10.65;100.00;101930.38;5064092;28;20074;-57
2023/02/18 10:00:47;;;;;;;32.50;4.90;;;;;;;10.76;100.00;101936.34;5065521;28;20070;-59
2023/02/18 10:03:12;;;;;;;29.98;3.95;;;;;;;10.72;100.00;101932.03;5065514;28;20021;-58
2023/02/18 10:05:45;;;;;;;38.72;5.10;;;;;;;10.86;100.00;101919.47;5063600;28;20039;-60
2023/02/18 10:08:21;;;;;;;26.25;3.75;;;;;;;10.90;100.00;101935.22;5065037;28;20179;-60
2023/02/18 10:10:47;;;;;;;29.13;4.43;;;;;;;10.93;100.00;101935.19;5063525;28;20040;-59
2023/02/18 10:13:15;;;;;;;28.25;4.60;;;;;;;10.95;100.00;101936.88;5066596;28;20025;-59
2023/02/18 10:15:42;;;;;;;27.77;5.28;;;;;;;10.95;100.00;101949.19;5065613;28;20029;-61
2023/02/18 10:18:18;;;;;;;23.77;4.30;;;;;;;10.84;100.00;101947.59;5058784;28;20452;-59
2023/02/18 10:20:44;;;;;;;30.70;4.47;;;;;;;10.89;100.00;101958.09;5064273;28;20052;-58
2023/02/18 10:23:10;;;;;;;35.63;5.13;;;;;;;11.02;100.00;101950.84;5064602;28;20108;-60
2023/02/18 10:25:40;;;;;;;20.88;4.40;;;;;;;10.94;100.00;101950.09;5065457;28;20032;-61
2023/02/18 10:28:05;;;;;;;27.75;4.43;;;;;;;11.03;100.00;101946.41;5050572;28;20033;-60
2023/02/18 10:31:00;;;;;;;26.85;4.28;;;;;;;11.13;100.00;101961.19;5045064;28;20021;-60
2023/02/18 10:33:41;;;;;;;25.45;3.63;;;;;;;11.19;100.00;101953.16;5044845;28;20047;-59
2023/02/18 10:36:26;;;;;;;25.80;4.07;;;;;;;11.31;100.00;101962.59;5046244;28;20025;-60
2023/02/18 10:39:03;;;;;;;20.30;3.50;;;;;;;11.41;100.00;101965.94;5028199;28;20029;-63
2023/02/18 10:41:53;;;;;;;19.17;3.45;;;;;;;11.35;100.00;101968.72;5026072;28;20080;-58
2023/02/18 10:44:40;;;;;;;20.75;3.97;;;;;;;11.36;100.00;101991.56;5040399;28;20035;-58
2023/02/18 10:47:14;;;;;;;20.17;3.30;;;;;;;11.34;100.00;101978.38;5036761;28;20113;-59
2023/02/18 10:49:54;;;;;;;29.73;4.47;;;;;;;11.42;100.00;101985.28;5026750;28;20435;-60
2023/02/18 10:52:20;;;;;;;20.98;3.60;;;;;;;11.30;100.00;101968.78;5026424;28;20035;-62
2023/02/18 10:55:03;;;;;;;22.65;3.80;;;;;;;11.31;100.00;101957.34;5026751;28;20025;-60
2023/02/18 10:57:28;;;;;;;26.45;4.22;;;;;;;11.33;100.00;101981.94;5023153;28;20072;-58
2023/02/18 10:59:59;;;;;;;25.38;5.57;;;;;;;11.48;100.00;101971.97;5026745;28;20105;-60
2023/02/18 11:02:29;;;;;;;20.08;3.35;;;;;;;11.37;100.00;101951.06;5026366;28;20055;-57
2023/02/18 11:04:56;;;;;;;17.85;3.95;;;;;;;11.33;100.00;101950.28;5044951;28;20040;-58
2023/02/18 11:07:25;;;;;;;27.50;5.05;;;;;;;11.48;100.00;101969.34;5044805;28;20028;-62
2023/02/18 11:09:51;;;;;;;;;;;;;;;11.64;100.00;101972.53;5046059;28;20028;-57
2023/02/18 11:12:22;;;;;;;27.85;4.50;;;;;;;11.68;100.00;101970.72;5044183;28;19913;-61